John Day, Oregon
Current Conditions -  °F | °C
As of 7:35 AM on Saturday 25 Oct 2014 (Local Time) from KGCD Reporting Station
Clear Clear  
Wind Chill: 63°   Ceiling: Unl
Heat Index: 63°   Visibility: 10mi
Dew Point: 27°   Wind: 22mph
Humidity: 26%   Direction: 190°S
Pressure: 29.68"   Gusts: 31mph
Location:  44.42°N, 118.95°W
Report Text: KGCD 251435Z AUTO 19019G27KT 10SM CLR 17/M03 A2968 RMK AO2 T01731027
Loading
Personal Weather Stations






























Interactive Weather Map
Tropical Storm Tracking
New forecast layout! Learn more

10-Day Weather Forecast

Advertisements
Track Severe Weather on mobile